Time;durP1;ratioP1;P1;durP2;ratioP2;P2;SDS_P1;SDS_P2;PMS_P1;PMS_P2;Temp;Humidity;BMP_temperature;BMP_pressure;BME280_temperature;BME280_humidity;BME280_pressure;Samples;Min_cycle;Max_cycle;Signal;HPM_P1;HPM_P2
2024/01/13 00:01:25;;;;;;;376.37;138.53;;;;;;;;;;5009113;28;20248;-50
2024/01/13 00:03:51;;;;;;;380.33;137.20;;;;;;;;;;5008526;28;20243;-50
2024/01/13 00:06:17;;;;;;;371.63;135.70;;;;;;;;;;5008468;28;20707;-50
2024/01/13 00:08:43;;;;;;;373.43;134.30;;;;;;;;;;5008558;28;20236;-50
2024/01/13 00:11:09;;;;;;;354.57;130.50;;;;;;;;;;5008435;28;20189;-50
2024/01/13 00:13:35;;;;;;;345.50;127.60;;;;;;;;;;5009148;28;20161;-50
2024/01/13 00:16:01;;;;;;;347.73;129.53;;;;;;;;;;5008853;28;20304;-50
2024/01/13 00:18:27;;;;;;;378.77;139.20;;;;;;;;;;5008019;28;20289;-50
2024/01/13 00:20:53;;;;;;;349.00;130.57;;;;;;;;;;5008311;28;20220;-50
2024/01/13 00:23:19;;;;;;;368.37;135.10;;;;;;;;;;5008422;28;20248;-50
2024/01/13 00:25:46;;;;;;;358.03;134.63;;;1.30;99.90;;;;;;5008769;28;20177;-50
2024/01/13 00:28:12;;;;;;;344.73;129.20;;;;;;;;;;5006953;28;20225;-50
2024/01/13 00:30:38;;;;;;;350.67;130.27;;;;;;;;;;5008477;28;20236;-50
2024/01/13 00:33:04;;;;;;;338.63;128.23;;;;;;;;;;5008508;28;20271;-50
2024/01/13 00:35:30;;;;;;;367.50;135.60;;;;;;;;;;5008576;28;20216;-50
2024/01/13 00:37:56;;;;;;;359.80;133.77;;;;;;;;;;5008671;28;20197;-50
2024/01/13 00:40:22;;;;;;;348.27;130.33;;;;;;;;;;5008062;28;20556;-50
2024/01/13 00:42:48;;;;;;;376.07;139.87;;;;;;;;;;5007273;28;20308;-50
2024/01/13 00:45:14;;;;;;;342.40;127.77;;;;;;;;;;5007991;28;20346;-50
2024/01/13 00:47:40;;;;;;;351.00;133.17;;;;;;;;;;5007955;28;20223;-50
2024/01/13 00:50:06;;;;;;;367.33;136.03;;;;;;;;;;5007747;28;20196;-50
2024/01/13 00:52:32;;;;;;;357.67;132.70;;;;;;;;;;5008452;28;20191;-50
2024/01/13 00:54:58;;;;;;;383.17;140.43;;;;;;;;;;5007564;28;20219;-50
2024/01/13 00:57:24;;;;;;;366.40;135.53;;;;;;;;;;5007568;28;20221;-50
2024/01/13 00:59:50;;;;;;;386.20;139.37;;;;;;;;;;5007545;28;20221;-50
2024/01/13 01:02:16;;;;;;;368.63;134.90;;;;;;;;;;5007751;28;20175;-50
2024/01/13 01:04:42;;;;;;;373.57;136.63;;;;;;;;;;5008049;28;20173;-49
2024/01/13 01:07:08;;;;;;;357.17;133.93;;;;;;;;;;5007572;28;20212;-50
2024/01/13 01:09:34;;;;;;;351.87;131.00;;;;;;;;;;5007805;28;20677;-50
2024/01/13 01:12:00;;;;;;;336.80;126.47;;;;;;;;;;5007841;28;20244;-49
2024/01/13 01:14:26;;;;;;;370.40;137.13;;;;;;;;;;5007321;28;20211;-50
2024/01/13 01:16:52;;;;;;;377.27;139.13;;;;;;;;;;5007519;28;20213;-50
2024/01/13 01:19:18;;;;;;;375.97;140.43;;;;;;;;;;5007357;28;20248;-50
2024/01/13 01:21:44;;;;;;;352.70;130.27;;;;;;;;;;5007402;28;20591;-49
2024/01/13 01:24:10;;;;;;;356.90;132.10;;;;;;;;;;5007283;28;20312;-50
2024/01/13 01:26:36;;;;;;;360.33;134.53;;;;;;;;;;5007304;28;20307;-49
2024/01/13 01:29:02;;;;;;;343.30;127.17;;;;;;;;;;5007375;28;20200;-49
2024/01/13 01:31:28;;;;;;;351.63;129.73;;;;;;;;;;5007852;28;20252;-49
2024/01/13 01:33:54;;;;;;;348.10;130.47;;;;;;;;;;5007345;28;20217;-49
2024/01/13 01:36:20;;;;;;;353.03;133.90;;;;;;;;;;5007038;28;20221;-50
2024/01/13 01:38:46;;;;;;;356.87;131.27;;;;;;;;;;5007002;28;20220;-49
2024/01/13 01:41:16;;;;;;;358.90;133.97;;;;;;;;;;5007077;28;20659;-49
2024/01/13 01:43:42;;;;;;;326.73;122.20;;;;;;;;;;5008194;28;20201;-50
2024/01/13 01:46:10;;;;;;;354.97;130.20;;;1.50;99.90;;;;;;5007403;28;20248;-49
2024/01/13 01:48:40;;;;;;;343.97;129.67;;;;;;;;;;5007191;28;20270;-49
2024/01/13 01:51:06;;;;;;;393.67;144.13;;;;;;;;;;5006896;28;20216;-50
2024/01/13 01:53:34;;;;;;;361.63;134.50;;;1.50;99.90;;;;;;5007223;28;20688;-49
2024/01/13 01:56:02;;;;;;;366.63;135.87;;;;;;;;;;5006899;28;20173;-49
2024/01/13 01:58:29;;;;;;;368.13;136.17;;;;;;;;;;5007563;28;20189;-49
2024/01/13 02:00:55;;;;;;;356.90;131.80;;;;;;;;;;5006813;28;20225;-50
2024/01/13 02:03:21;;;;;;;348.53;132.00;;;;;;;;;;5006903;28;20275;-50
2024/01/13 02:05:47;;;;;;;339.37;128.93;;;;;;;;;;5006811;28;20687;-49
2024/01/13 02:08:13;;;;;;;368.50;137.80;;;1.60;99.90;;;;;;5006992;28;20197;-50
2024/01/13 02:10:39;;;;;;;364.67;135.63;;;;;;;;;;5007432;28;20201;-49
2024/01/13 02:13:05;;;;;;;364.53;134.27;;;;;;;;;;5006511;28;20227;-50
2024/01/13 02:15:31;;;;;;;370.00;136.43;;;;;;;;;;5006575;28;20224;-49
2024/01/13 02:17:57;;;;;;;347.83;129.27;;;;;;;;;;5006588;28;20221;-49
2024/01/13 02:20:23;;;;;;;340.00;128.43;;;;;;;;;;5006570;28;20220;-50
2024/01/13 02:22:49;;;;;;;376.83;137.77;;;;;;;;;;5007477;28;20173;-49
2024/01/13 02:25:16;;;;;;;350.60;132.03;;;;;;;;;;5006712;28;20407;-50
2024/01/13 02:27:42;;;;;;;377.13;140.23;;;;;;;;;;5006374;28;20217;-49
2024/01/13 02:30:09;;;;;;;384.13;140.87;;;;;;;;;;5006594;28;20225;-49
2024/01/13 02:32:35;;;;;;;373.33;137.20;;;;;;;;;;5006333;28;20232;-50
2024/01/13 02:35:01;;;;;;;357.73;134.27;;;;;;;;;;5006815;28;20580;-50
2024/01/13 02:37:27;;;;;;;367.20;135.57;;;;;;;;;;5006919;28;20197;-49
2024/01/13 02:39:53;;;;;;;362.37;134.83;;;;;;;;;;5006587;28;20221;-49
2024/01/13 02:42:19;;;;;;;345.27;130.70;;;;;;;;;;5006424;28;20298;-50
2024/01/13 02:44:44;;;;;;;341.23;128.13;;;;;;;;;;5006769;28;20454;-49
2024/01/13 02:47:10;;;;;;;360.27;135.47;;;;;;;;;;5006309;28;20207;-50
2024/01/13 02:49:36;;;;;;;364.00;133.77;;;;;;;;;;5006880;28;20229;-50
2024/01/13 02:52:02;;;;;;;360.73;133.60;;;;;;;;;;5006267;28;20213;-51
2024/01/13 02:54:28;;;;;;;376.77;138.13;;;;;;;;;;5006395;28;20217;-49
2024/01/13 02:56:54;;;;;;;347.47;129.20;;;;;;;;;;5006339;28;20236;-51
2024/01/13 02:59:20;;;;;;;353.17;130.23;;;;;;;;;;5006467;28;20286;-49
2024/01/13 03:01:46;;;;;;;352.40;131.10;;;;;;;;;;5006809;28;20215;-49
2024/01/13 03:04:12;;;;;;;370.83;135.63;;;;;;;;;;5006239;28;20288;-49
2024/01/13 03:06:38;;;;;;;376.30;137.10;;;;;;;;;;5006787;28;20216;-49
2024/01/13 03:09:05;;;;;;;378.37;139.20;;;;;;;;;;5009632;28;20221;-49
2024/01/13 03:11:31;;;;;;;372.70;136.17;;;;;;;;;;5009455;28;20358;-50
2024/01/13 03:13:58;;;;;;;349.13;127.70;;;;;;;;;;5010330;28;20208;-49
2024/01/13 03:16:24;;;;;;;343.00;127.73;;;;;;;;;;5009820;28;20220;-50
2024/01/13 03:18:50;;;;;;;360.73;131.47;;;;;;;;;;5009857;28;20223;-50
2024/01/13 03:21:16;;;;;;;350.07;131.87;;;;;;;;;;5009672;28;20223;-50
2024/01/13 03:23:42;;;;;;;377.73;136.17;;;;;;;;;;5009401;28;20216;-49
2024/01/13 03:26:08;;;;;;;367.03;137.27;;;;;;;;;;5009358;28;20164;-49
2024/01/13 03:28:34;;;;;;;374.90;136.03;;;;;;;;;;5009859;28;20193;-49
2024/01/13 03:31:00;;;;;;;374.83;138.93;;;;;;;;;;5009289;28;20347;-49
2024/01/13 03:33:26;;;;;;;370.63;135.50;;;;;;;;;;5009310;28;20362;-49
2024/01/13 03:35:52;;;;;;;353.63;130.13;;;;;;;;;;5009478;28;20212;-50
2024/01/13 03:38:18;;;;;;;350.73;131.83;;;;;;;;;;5010846;28;20254;-50
2024/01/13 03:40:44;;;;;;;357.07;133.57;;;;;;;;;;5009701;28;20244;-50
2024/01/13 03:43:10;;;;;;;370.40;136.67;;;;;;;;;;5008860;28;20217;-50
2024/01/13 03:45:36;;;;;;;376.30;136.30;;;;;;;;;;5009241;28;20224;-50
2024/01/13 03:48:02;;;;;;;367.07;138.43;;;;;;;;;;5008798;28;20731;-50
2024/01/13 03:50:28;;;;;;;347.17;130.47;;;;;;;;;;5008921;28;20240;-50
2024/01/13 03:52:54;;;;;;;358.73;137.93;;;;;;;;;;5009342;28;20181;-50
2024/01/13 03:55:20;;;;;;;346.80;130.60;;;;;;;;;;5009006;28;20263;-50
2024/01/13 03:57:46;;;;;;;351.27;130.30;;;;;;;;;;5009327;28;20224;-50
2024/01/13 04:00:12;;;;;;;382.60;139.03;;;;;;;;;;5009241;28;20591;-50
2024/01/13 04:02:38;;;;;;;365.53;135.93;;;;;;;;;;5008623;28;20572;-50
2024/01/13 04:05:04;;;;;;;370.50;137.87;;;;;;;;;;5008790;28;20214;-52
2024/01/13 04:07:30;;;;;;;362.70;133.77;;;;;;;;;;5009189;28;20201;-50
2024/01/13 04:09:56;;;;;;;355.03;131.07;;;;;;;;;;5008489;28;20235;-50
2024/01/13 04:12:22;;;;;;;347.10;127.63;;;;;;;;;;5008531;28;20221;-52
2024/01/13 04:14:48;;;;;;;358.63;131.77;;;;;;;;;;5008790;28;20219;-50
2024/01/13 04:17:14;;;;;;;346.23;128.63;;;;;;;;;;5008773;28;20193;-50
2024/01/13 04:19:40;;;;;;;369.93;136.67;;;;;;;;;;5009161;28;20173;-50
2024/01/13 04:22:06;;;;;;;376.47;138.73;;;;;;;;;;5008137;28;20751;-50
2024/01/13 04:24:32;;;;;;;381.20;137.23;;;;;;;;;;5008233;28;20266;-50
2024/01/13 04:26:58;;;;;;;373.00;136.13;;;;;;;;;;5008336;28;20560;-50
2024/01/13 04:29:24;;;;;;;372.00;135.17;;;;;;;;;;5007918;28;20273;-50
2024/01/13 04:31:50;;;;;;;362.13;133.10;;;;;;;;;;5009063;28;20177;-50
2024/01/13 04:34:16;;;;;;;345.70;128.67;;;;;;;;;;5008346;28;20591;-50
2024/01/13 04:36:42;;;;;;;352.17;128.57;;;;;;;;;;5008400;28;20367;-50
2024/01/13 04:39:08;;;;;;;373.87;136.40;;;;;;;;;;5007766;28;20216;-50
2024/01/13 04:41:35;;;;;;;382.63;138.20;;;;;;;;;;5007929;28;20228;-50
2024/01/13 04:44:03;;;;;;;382.57;141.60;;;;;;;;;;5007852;28;20223;-50
2024/01/13 04:46:29;;;;;;;350.40;129.73;;;;;;;;;;5008696;28;20798;-50
2024/01/13 04:48:55;;;;;;;360.87;133.57;;;;;;;;;;5007597;28;20239;-50
2024/01/13 04:51:21;;;;;;;355.37;134.47;;;;;;;;;;5007936;28;20208;-50
2024/01/13 04:53:48;;;;;;;342.23;128.50;;;;;;;;;;5007614;28;20220;-50
2024/01/13 04:56:15;;;;;;;379.10;139.37;;;;;;;;;;5008032;28;20516;-50
2024/01/13 04:58:41;;;;;;;367.73;136.50;;;;;;;;;;5008172;28;20201;-50
2024/01/13 05:01:08;;;;;;;382.80;143.40;;;;;;;;;;5007301;28;20235;-50
2024/01/13 05:03:35;;;;;;;360.83;136.40;;;;;;;;;;5007548;28;20213;-50
2024/01/13 05:06:01;;;;;;;370.77;135.93;;;;;;;;;;5007845;28;20573;-50
2024/01/13 05:08:27;;;;;;;353.60;129.33;;;;;;;;;;5007691;28;20515;-50
2024/01/13 05:10:53;;;;;;;375.63;137.47;;;;;;;;;;5008379;28;20197;-50
2024/01/13 05:13:19;;;;;;;358.77;133.77;;;;;;;;;;5007714;28;20248;-50
2024/01/13 05:15:45;;;;;;;376.77;139.10;;;;;;;;;;5007424;28;20232;-50
2024/01/13 05:18:12;;;;;;;366.93;136.67;;;;;;;;;;5007301;28;20592;-50
2024/01/13 05:20:37;;;;;;;354.97;134.50;;;;;;;;;;5007414;28;20225;-50
2024/01/13 05:23:04;;;;;;;356.10;133.40;;;;;;;;;;5007092;28;20181;-50
2024/01/13 05:25:30;;;;;;;368.37;134.53;;;;;;;;;;5007813;28;20268;-50
2024/01/13 05:27:56;;;;;;;345.07;128.27;;;;;;;;;;5007535;28;20224;-50
2024/01/13 05:30:22;;;;;;;354.23;133.97;;;;;;;;;;5006879;28;20232;-50
2024/01/13 05:32:48;;;;;;;346.93;127.97;;;;;;;;;;5007191;28;20311;-50
2024/01/13 05:35:14;;;;;;;345.77;129.03;;;;;;;;;;5007087;28;20247;-50
2024/01/13 05:37:40;;;;;;;375.87;136.00;;;;;;;;;;5007532;28;20258;-50
2024/01/13 05:40:06;;;;;;;380.47;139.77;;;;;;;;;;5006836;28;20228;-50
2024/01/13 05:42:33;;;;;;;343.77;126.97;;;;;;;;;;5007250;28;20223;-50
2024/01/13 05:44:59;;;;;;;346.83;127.80;;;;;;;;;;5006921;28;20209;-50
2024/01/13 05:47:25;;;;;;;368.30;134.13;;;;;;;;;;5006772;28;20636;-50
2024/01/13 05:49:52;;;;;;;354.37;129.53;;;;;;;;;;5007253;28;20568;-50
2024/01/13 05:52:18;;;;;;;363.63;137.30;;;;;;;;;;5007484;28;20224;-50
2024/01/13 05:54:44;;;;;;;376.67;138.40;;;;;;;;;;5007232;28;20251;-50
2024/01/13 05:57:10;;;;;;;373.53;136.83;;;;;;;;;;5006531;28;20648;-50
2024/01/13 05:59:36;;;;;;;359.13;132.40;;;;;;;;;;5006789;28;20228;-50
2024/01/13 06:02:02;;;;;;;365.20;134.90;;;;;;;;;;5006697;28;20181;-50
2024/01/13 06:04:28;;;;;;;348.00;131.30;;;;;;;;;;5007518;28;20578;-50
2024/01/13 06:06:54;;;;;;;347.50;130.60;;;;;;;;;;5006705;28;20220;-50
2024/01/13 06:09:20;;;;;;;351.07;130.23;;;;;;;;;;5006843;28;20221;-51
2024/01/13 06:11:46;;;;;;;352.20;130.67;;;;;;;;;;5006542;28;20552;-49
2024/01/13 06:14:12;;;;;;;370.73;136.40;;;;;;;;;;5006692;28;20637;-50
2024/01/13 06:16:38;;;;;;;340.20;126.67;;;;;;;;;;5007158;28;20608;-50
2024/01/13 06:19:05;;;;;;;375.70;137.90;;;;;;;;;;5006541;28;20219;-50
2024/01/13 06:21:31;;;;;;;358.33;134.63;;;;;;;;;;5006618;28;20217;-50
2024/01/13 06:23:59;;;;;;;350.70;129.00;;;;;;;;;;5006601;28;20220;-50
2024/01/13 06:26:26;;;;;;;351.37;129.87;;;;;;;;;;5006459;28;20236;-50
2024/01/13 06:28:52;;;;;;;366.97;134.77;;;;;;;;;;5007777;28;20243;-50
2024/01/13 06:31:18;;;;;;;379.37;140.80;;;;;;;;;;5006126;28;20588;-50
2024/01/13 06:33:44;;;;;;;357.27;130.20;;;;;;;;;;5006340;28;20223;-50
2024/01/13 06:36:10;;;;;;;355.17;131.37;;;;;;;;;;5006616;28;20226;-49
2024/01/13 06:38:36;;;;;;;356.17;130.97;;;;;;;;;;5006368;28;20532;-49
2024/01/13 06:41:03;;;;;;;361.57;133.27;;;;;;;;;;5006364;28;20185;-50
2024/01/13 06:43:29;;;;;;;365.40;136.10;;;;;;;;;;5010874;28;20204;-50
2024/01/13 06:45:55;;;;;;;342.93;128.77;;;;;;;;;;5010582;28;20223;-51
2024/01/13 06:48:21;;;;;;;375.63;137.43;;;;;;;;;;5010160;28;20568;-50
2024/01/13 06:50:47;;;;;;;359.97;132.87;;;;;;;;;;5010413;28;20220;-51
2024/01/13 06:53:12;;;;;;;387.10;145.57;;;;;;;;;;5008847;28;20335;-50
2024/01/13 06:55:39;;;;;;;361.57;132.57;;;;;;;;;;5010405;28;20181;-50
2024/01/13 06:58:05;;;;;;;345.10;129.23;;;;;;;;;;5010079;28;20239;-50
2024/01/13 07:00:31;;;;;;;334.10;124.03;;;;;;;;;;5010034;28;20286;-50
2024/01/13 07:02:58;;;;;;;354.43;131.23;;;;;;;;;;5008524;28;20245;-50
2024/01/13 07:05:24;;;;;;;353.77;131.07;;;;;;;;;;5010473;28;20217;-50
2024/01/13 07:07:50;;;;;;;365.90;133.30;;;;;;;;;;5010276;28;20236;-49
2024/01/13 07:10:16;;;;;;;364.03;136.63;;;;;;;;;;5009769;28;20703;-50
2024/01/13 07:12:42;;;;;;;353.00;130.93;;;;;;;;;;5009750;28;20224;-49
2024/01/13 07:15:08;;;;;;;363.70;135.07;;;;;;;;;;5010834;28;20240;-49
2024/01/13 07:17:34;;;;;;;349.13;129.03;;;;;;;;;;5009929;28;20586;-49
2024/01/13 07:20:00;;;;;;;357.57;136.90;;;;;;;;;;5010107;28;20177;-49
2024/01/13 07:22:27;;;;;;;348.50;130.93;;;;;;;;;;5010371;28;20184;-50
2024/01/13 07:24:54;;;;;;;357.07;131.83;;;;;;;;;;5009767;28;20595;-50
2024/01/13 07:27:20;;;;;;;344.33;132.27;;;;;;;;;;5009686;28;20224;-50
2024/01/13 07:29:46;;;;;;;338.87;126.43;;;;;;;;;;5009684;28;20800;-49
2024/01/13 07:32:13;;;;;;;336.17;129.03;;;;;;;;;;4995796;28;20352;-49
2024/01/13 07:34:41;;;;;;;325.17;124.83;;;;;;;;;;5010270;28;20232;-49
2024/01/13 07:37:07;;;;;;;344.07;129.80;;;;;;;;;;5009402;28;20232;-50
2024/01/13 07:39:33;;;;;;;363.03;135.73;;;;;;;;;;5009630;28;20225;-50
2024/01/13 07:41:59;;;;;;;346.70;129.93;;;;;;;;;;5009704;28;20671;-49
2024/01/13 07:44:25;;;;;;;352.17;131.03;;;;;;;;;;5009238;28;20227;-49
2024/01/13 07:46:53;;;;;;;365.70;137.83;;;;;;;;;;5009649;28;20204;-49
2024/01/13 07:49:19;;;;;;;361.07;131.03;;;;;;;;;;5008961;28;20235;-49
2024/01/13 07:51:49;;;;;;;380.27;138.43;;;;;;;;;;5009507;28;20217;-50
2024/01/13 07:54:15;;;;;;;363.83;134.23;;;;;;;;;;5008695;28;20216;-50
2024/01/13 07:56:41;;;;;;;348.37;130.40;;;;;;;;;;5009121;28;20248;-50
2024/01/13 07:59:07;;;;;;;386.10;144.37;;;;;;;;;;5017167;23;20225;-48
2024/01/13 08:01:33;;;;;;;394.40;141.83;;;;;;;;;;4989379;28;20599;-50
2024/01/13 08:03:59;;;;;;;387.27;145.70;;;;;;;;;;5000761;28;20307;-49
2024/01/13 08:06:25;;;;;;;389.87;147.87;;;;;;;;;;5008164;28;20220;-48
2024/01/13 08:08:51;;;;;;;397.67;148.77;;;;;;;;;;4999787;28;20232;-49
2024/01/13 08:11:17;;;;;;;385.83;146.00;;;;;;;;;;5008032;28;20622;-49
2024/01/13 08:13:43;;;;;;;373.10;139.33;;;;;;;;;;5008654;28;20181;-47
2024/01/13 08:16:09;;;;;;;398.90;150.47;;;;;;;;;;5008257;28;20275;-48
2024/01/13 08:18:36;;;;;;;358.70;133.37;;;;;;;;;;5007704;28;20317;-48
2024/01/13 08:21:02;;;;;;;385.57;143.70;;;;;;;;;;5001631;28;20219;-51
2024/01/13 08:23:28;;;;;;;401.17;148.70;;;;;;;;;;4988793;28;20763;-47
2024/01/13 08:25:54;;;;;;;411.57;151.50;;;;;;;;;;4988860;28;20185;-47
2024/01/13 08:28:20;;;;;;;378.70;140.67;;;;;;;;;;4988401;28;20244;-48
2024/01/13 08:30:46;;;;;;;400.07;148.00;;;;;;;;;;4988505;28;20229;-49
2024/01/13 08:33:12;;;;;;;380.30;140.63;;;;;;;;;;4988480;28;20226;-48
2024/01/13 08:35:38;;;;;;;372.00;135.90;;;;;;;;;;4988676;28;20224;-48
2024/01/13 08:38:04;;;;;;;371.00;138.80;;;;;;;;;;4988472;28;20220;-48
2024/01/13 08:40:30;;;;;;;397.43;145.83;;;;;;;;;;4988564;28;20221;-48
2024/01/13 08:42:56;;;;;;;376.30;138.80;;;2.20;99.90;;;;;;4988115;28;20688;-48
2024/01/13 08:45:29;;;;;;;381.23;141.30;;;;;;;;;;4987709;28;20217;-48
2024/01/13 08:47:56;;;;;;;413.27;152.77;;;;;;;;;;4987907;28;20323;-48
2024/01/13 08:50:21;;;;;;;365.27;138.67;;;;;;;;;;4987818;28;20294;-48
2024/01/13 08:52:51;;;;;;;362.23;138.37;;;;;;;;;;4988323;28;20177;-48
2024/01/13 08:55:17;;;;;;;350.50;134.73;;;;;;;;;;4987946;28;20257;-48
2024/01/13 08:57:43;;;;;;;395.07;146.60;;;;;;;;;;4987885;28;20742;-48
2024/01/13 09:00:09;;;;;;;409.53;154.20;;;;;;;;;;4987595;28;20263;-48
2024/01/13 09:02:35;;;;;;;382.23;146.97;;;;;;;;;;4987331;28;20222;-48
2024/01/13 09:05:01;;;;;;;384.20;145.40;;;;;;;;;;4986810;28;20185;-48
2024/01/13 09:07:27;;;;;;;378.57;143.63;;;;;;;;;;4986856;28;20304;-48
2024/01/13 09:09:53;;;;;;;352.10;131.07;;;;;;;;;;4987337;28;20352;-48
2024/01/13 09:12:19;;;;;;;362.53;138.27;;;;;;;;;;4988068;28;20305;-48
2024/01/13 09:14:45;;;;;;;381.47;142.73;;;;;;;;;;4987883;28;20297;-48
2024/01/13 09:17:11;;;;;;;380.27;143.63;;;;;;;;;;4987576;28;20632;-47
2024/01/13 09:19:38;;;;;;;401.70;147.70;;;;;;;;;;4987754;28;20221;-48
2024/01/13 09:22:04;;;;;;;393.43;143.10;;;;;;;;;;4987265;28;20229;-48
2024/01/13 09:24:30;;;;;;;385.90;152.37;;;;;;;;;;4987364;28;20229;-48
2024/01/13 09:26:56;;;;;;;400.30;152.07;;;;;;;;;;4987506;28;20600;-47
2024/01/13 09:29:22;;;;;;;362.17;136.27;;;;;;;;;;4987400;28;20225;-48
2024/01/13 09:31:49;;;;;;;357.70;133.97;;;;;;;;;;4987843;28;20170;-48
2024/01/13 09:34:15;;;;;;;379.13;142.53;;;;;;;;;;4987177;28;20225;-48
2024/01/13 09:36:42;;;;;;;368.70;138.70;;;;;;;;;;4987128;28;20288;-48
2024/01/13 09:39:11;;;;;;;384.57;142.47;;;;;;;;;;4988680;28;20193;-48
2024/01/13 09:41:41;;;;;;;383.57;144.77;;;;;;;;;;4986863;28;20221;-48
2024/01/13 09:44:22;;;;;;;373.13;141.20;;;2.40;99.90;;;;;;4987233;28;20184;-48
2024/01/13 09:46:49;;;;;;;387.67;144.77;;;;;;;;;;4987599;28;20245;-48
2024/01/13 09:49:17;;;;;;;382.13;143.47;;;;;;;;;;4986824;28;20284;-48
2024/01/13 09:51:43;;;;;;;377.33;142.30;;;;;;;;;;4987230;28;20227;-48
2024/01/13 09:54:11;;;;;;;387.60;145.00;;;;;;;;;;4986833;28;20221;-47
2024/01/13 09:56:44;;;;;;;397.53;151.97;;;;;;;;;;4987138;28;20225;-48
2024/01/13 09:59:10;;;;;;;384.80;147.10;;;;;;;;;;4986744;28;20213;-48
2024/01/13 10:01:36;;;;;;;387.10;144.40;;;;;;;;;;4987405;28;20169;-48
2024/01/13 10:04:02;;;;;;;390.27;147.50;;;2.60;99.90;;;;;;4986683;28;20245;-48
2024/01/13 10:06:30;;;;;;;379.70;141.43;;;;;;;;;;4978176;28;20252;-48
2024/01/13 10:08:56;;;;;;;377.03;140.93;;;;;;;;;;4965800;28;20325;-48
2024/01/13 10:11:22;;;;;;;373.90;139.97;;;;;;;;;;4967319;28;20305;-48
2024/01/13 10:13:58;;;;;;;386.33;145.87;;;;;;;;;;4968005;28;20174;-48
2024/01/13 10:16:26;;;;;;;388.87;140.03;;;;;;;;;;4969478;28;20221;-48
2024/01/13 10:18:53;;;;;;;396.07;145.47;;;;;;;;;;4970865;28;20222;-47
2024/01/13 10:21:18;;;;;;;381.63;139.67;;;;;;;;;;4971290;28;20537;-48
2024/01/13 10:23:44;;;;;;;377.60;142.83;;;;;;;;;;4971311;28;20222;-48
2024/01/13 10:26:10;;;;;;;385.47;147.67;;;;;;;;;;4983874;28;20189;-48
2024/01/13 10:28:36;;;;;;;389.77;145.30;;;;;;;;;;5011011;28;20192;-48
2024/01/13 10:31:02;;;;;;;389.53;151.57;;;2.70;99.90;;;;;;5010194;28;20276;-48
2024/01/13 10:33:31;;;;;;;373.70;139.93;;;;;;;;;;5010006;28;20359;-48
2024/01/13 10:35:57;;;;;;;398.17;150.10;;;;;;;;;;5009857;28;20660;-48
2024/01/13 10:38:23;;;;;;;376.90;139.20;;;;;;;;;;5009918;28;20623;-48
2024/01/13 10:40:49;;;;;;;381.30;146.97;;;;;;;;;;5010655;28;20181;-48
2024/01/13 10:43:18;;;;;;;379.13;140.70;;;;;;;;;;5009895;28;20657;-48
2024/01/13 10:45:46;;;;;;;384.73;144.43;;;;;;;;;;5009819;28;20278;-48
2024/01/13 10:48:22;;;;;;;372.20;139.97;;;;;;;;;;5009912;28;20217;-47
2024/01/13 10:50:49;;;;;;;370.37;141.20;;;;;;;;;;5010041;28;20287;-48
2024/01/13 10:53:26;;;;;;;395.53;146.43;;;;;;;;;;5009886;28;20185;-48
2024/01/13 10:55:52;;;;;;;390.00;146.77;;;;;;;;;;5010317;28;20161;-47
2024/01/13 10:58:19;;;;;;;397.33;149.43;;;;;;;;;;5009451;28;20274;-48
2024/01/13 11:00:46;;;;;;;377.23;140.80;;;;;;;;;;5009556;28;20229;-48
2024/01/13 11:03:15;;;;;;;382.43;141.60;;;;;;;;;;5009684;28;20213;-49
2024/01/13 11:05:41;;;;;;;373.10;140.13;;;;;;;;;;5009833;28;20217;-48
2024/01/13 11:08:07;;;;;;;409.00;155.47;;;;;;;;;;5009424;28;20173;-47
2024/01/13 11:10:35;;;;;;;400.97;147.73;;;;;;;;;;5009806;28;20205;-48
2024/01/13 11:13:03;;;;;;;391.80;147.67;;;;;;;;;;5009385;28;20283;-48
2024/01/13 11:15:32;;;;;;;378.57;143.27;;;;;;;;;;5009397;28;20271;-47
2024/01/13 11:18:02;;;;;;;393.50;149.23;;;;;;;;;;5009550;28;20216;-48
2024/01/13 11:20:28;;;;;;;371.90;140.07;;;;;;;;;;5007736;28;20217;-48
2024/01/13 11:22:58;;;;;;;401.17;149.97;;;2.50;99.90;;;;;;5009509;28;20344;-48
2024/01/13 11:25:25;;;;;;;362.40;137.70;;;;;;;;;;5009727;28;20205;-48
2024/01/13 11:27:58;;;;;;;377.23;141.77;;;;;;;;;;5008442;28;20300;-48
2024/01/13 11:30:30;;;;;;;379.93;150.67;;;;;;;;;;5008964;28;20239;-48
2024/01/13 11:32:56;;;;;;;394.13;145.43;;;;;;;;;;5008719;28;20308;-48
2024/01/13 11:35:22;;;;;;;406.77;153.10;;;2.40;99.90;;;;;;5008770;28;20287;-48
2024/01/13 11:37:54;;;;;;;366.03;139.97;;;;;;;;;;5007877;28;20461;-48
2024/01/13 11:40:20;;;;;;;386.73;146.73;;;;;;;;;;5008844;28;20233;-48
2024/01/13 11:42:46;;;;;;;387.53;146.40;;;;;;;;;;5008776;28;20311;-47
2024/01/13 11:45:13;;;;;;;391.93;147.20;;;;;;;;;;5009297;28;20219;-47
2024/01/13 11:47:39;;;;;;;381.47;144.67;;;;;;;;;;5008301;28;20212;-47
2024/01/13 11:50:25;;;;;;;410.87;154.77;;;;;;;;;;5008237;28;20231;-47
2024/01/13 11:52:51;;;;;;;398.77;149.50;;;;;;;;;;5008945;28;20185;-47
2024/01/13 11:55:17;;;;;;;389.47;144.03;;;;;;;;;;5008323;28;20229;-47
2024/01/13 11:57:44;;;;;;;395.77;150.97;;;;;;;;;;5011069;28;20616;-47
2024/01/13 12:00:10;;;;;;;390.20;148.20;;;;;;;;;;5028009;28;20289;-47
2024/01/13 12:02:36;;;;;;;373.23;140.80;;;;;;;;;;5028712;28;20571;-47
2024/01/13 12:05:03;;;;;;;384.37;144.83;;;;;;;;;;5028329;28;20727;-48
2024/01/13 12:07:30;;;;;;;398.17;148.93;;;;;;;;;;5028040;28;20299;-48
2024/01/13 12:09:56;;;;;;;375.43;140.90;;;;;;;;;;5027579;28;20665;-47
2024/01/13 12:12:23;;;;;;;397.10;146.87;;;;;;;;;;5027567;28;20258;-48
2024/01/13 12:14:49;;;;;;;390.10;148.00;;;;;;;;;;5028590;28;20219;-48
2024/01/13 12:17:16;;;;;;;368.00;137.70;;;;;;;;;;5028287;28;20486;-48
2024/01/13 12:19:42;;;;;;;398.17;144.90;;;;;;;;;;5028009;28;20279;-48
2024/01/13 12:22:09;;;;;;;389.70;148.93;;;2.80;99.90;;;;;;5028010;28;20784;-48
2024/01/13 12:24:35;;;;;;;416.43;153.87;;;;;;;;;;5027728;28;20263;-48
2024/01/13 12:27:02;;;;;;;396.03;145.37;;;;;;;;;;5027406;28;20231;-48
2024/01/13 12:29:31;;;;;;;410.50;152.53;;;2.80;99.90;;;;;;5027123;28;20311;-47
2024/01/13 12:31:57;;;;;;;379.87;139.20;;;2.80;99.90;;;;;;5027874;28;20181;-47
2024/01/13 12:34:24;;;;;;;382.87;142.70;;;;;;;;;;5027557;28;20208;-48
2024/01/13 12:36:50;;;;;;;395.57;148.07;;;;;;;;;;5027509;28;20216;-47
2024/01/13 12:39:16;;;;;;;360.70;132.30;;;;;;;;;;5026305;28;20591;-47
2024/01/13 12:41:42;;;;;;;406.20;153.10;;;;;;;;;;5027339;28;20218;-47
2024/01/13 12:44:09;;;;;;;393.47;147.93;;;;;;;;;;5027393;28;20169;-47
2024/01/13 12:46:35;;;;;;;405.00;151.50;;;;;;;;;;5027591;28;20176;-47
2024/01/13 12:49:11;;;;;;;411.57;150.83;;;;;;;;;;5026840;28;20250;-47
2024/01/13 12:51:40;;;;;;;373.90;135.70;;;;;;;;;;5027327;28;20220;-47
2024/01/13 12:54:07;;;;;;;373.07;139.90;;;;;;;;;;5027305;28;20674;-48
2024/01/13 12:56:33;;;;;;;378.40;139.83;;;;;;;;;;5013287;28;20649;-47
2024/01/13 12:58:59;;;;;;;371.67;140.03;;;;;;;;;;4987875;28;20541;-47
2024/01/13 13:01:25;;;;;;;386.57;139.10;;;;;;;;;;4988018;28;20182;-47
2024/01/13 13:03:51;;;;;;;401.17;148.93;;;;;;;;;;4987572;28;20272;-47
2024/01/13 13:06:17;;;;;;;405.80;145.83;;;;;;;;;;4987613;28;20304;-47
2024/01/13 13:08:43;;;;;;;375.87;137.57;;;;;;;;;;4987150;28;20230;-48
2024/01/13 13:11:10;;;;;;;374.63;143.40;;;;;;;;;;4987492;28;20591;-47
2024/01/13 13:13:36;;;;;;;401.90;153.10;;;;;;;;;;4987330;28;20208;-47
2024/01/13 13:16:04;;;;;;;379.33;139.70;;;;;;;;;;4986628;28;20217;-48
2024/01/13 13:18:30;;;;;;;400.57;147.67;;;;;;;;;;4985646;28;20217;-47
2024/01/13 13:20:56;;;;;;;373.97;138.60;;;;;;;;;;4987468;28;20239;-47
2024/01/13 13:23:22;;;;;;;281.63;115.07;;;;;;;;;;4987102;28;20209;-48
2024/01/13 13:25:48;;;;;;;279.83;113.97;;;2.60;99.90;;;;;;4990051;28;20177;-49
2024/01/13 13:28:14;;;;;;;267.70;108.03;;;;;;;;;;4989190;28;20247;-48
2024/01/13 13:30:40;;;;;;;268.37;108.97;;;2.70;99.90;;;;;;4989376;28;20229;-48
2024/01/13 13:33:06;;;;;;;399.90;148.17;;;;;;;;;;4988585;28;20285;-48
2024/01/13 13:35:32;;;;;;;415.90;154.47;;;;;;;;;;4986841;28;20385;-48
2024/01/13 13:37:58;;;;;;;414.77;153.67;;;;;;;;;;4986731;28;20276;-49
2024/01/13 13:40:24;;;;;;;384.13;142.00;;;;;;;;;;4987328;28;20790;-49
2024/01/13 13:42:50;;;;;;;373.23;140.70;;;;;;;;;;4986971;28;20221;-48